Charter Oak, California
Current Conditions -  °F | °C
As of 11:53 AM on Thursday 18 Dec 2014 (Local Time) from KONT Reporting Station
Scattered Clouds Scattered Clouds  
Wind Chill: 60°   Ceiling: Unl
Heat Index: 60°   Visibility: 10mi
Dew Point: 42°   Wind: 3mph
Humidity: 51%   Direction: NA
Pressure: 30.16"   Gusts: NA
Location:  34.0808°N, 117.854°W
Report Text: KONT 181953Z VRB03KT 10SM FEW050 FEW080 SCT250 16/06 A3016 RMK AO2 SLP211 T01560056
Loading
Personal Weather Stations






























Interactive Weather Map New forecast layout! Learn more

10-Day Weather Forecast

Advertisements
Track Severe Weather on mobile